Time;durP1;ratioP1;P1;durP2;ratioP2;P2;SDS_P1;SDS_P2;PMS_P1;PMS_P2;Temp;Humidity;BMP_temperature;BMP_pressure;BME280_temperature;BME280_humidity;BME280_pressure;Samples;Min_cycle;Max_cycle;Signal;HPM_P1;HPM_P2
2023/04/26 00:01:04;;;;;;;20.52;8.10;;;;;;;4.79;100.00;98871.47;4986770;28;20037;-79
2023/04/26 00:03:30;;;;;;;19.77;7.10;;;;;;;4.76;100.00;98874.50;4993434;28;20173;-81
2023/04/26 00:05:55;;;;;;;16.77;7.25;;;;;;;4.59;100.00;98836.97;4994361;28;22306;-80
2023/04/26 00:08:20;;;;;;;13.15;7.10;;;;;;;4.56;100.00;98834.59;5011872;28;20025;-78
2023/04/26 00:10:45;;;;;;;14.73;6.90;;;;;;;4.77;100.00;98860.94;4992214;28;20056;-78
2023/04/26 00:13:11;;;;;;;16.92;7.10;;;;;;;4.81;100.00;98856.09;5009702;28;20062;-80
2023/04/26 00:15:36;;;;;;;14.15;7.75;;;;;;;4.99;100.00;98878.22;5012370;28;20540;-79
2023/04/26 00:18:02;;;;;;;15.88;8.20;;;;;;;4.97;100.00;98856.09;4991792;28;20029;-79
2023/04/26 00:20:28;;;;;;;15.63;7.95;;;;;;;4.97;100.00;98845.38;4985207;28;20571;-79
2023/04/26 00:22:53;;;;;;;23.08;8.95;;;;;;;5.00;100.00;98846.88;4989365;28;20045;-81
2023/04/26 00:25:18;;;;;;;20.17;9.95;;;;;;;5.08;100.00;98862.13;4994435;28;20041;-79
2023/04/26 00:27:44;;;;;;;17.35;8.73;;;;;;;5.02;100.00;98855.59;4993196;28;20057;-79
2023/04/26 00:30:10;;;;;;;18.50;8.35;;;;;;;5.00;100.00;98863.84;5002522;28;20026;-80
2023/04/26 00:32:35;;;;;;;18.52;7.70;;;;;;;4.83;100.00;98824.59;4994358;28;20494;-79
2023/04/26 00:35:02;;;;;;;19.80;8.40;;;;;;;5.08;100.00;98881.75;4994349;28;20030;-79
2023/04/26 00:37:28;;;;;;;16.92;7.82;;;;;;;4.94;100.00;98866.31;4994377;28;20117;-79
2023/04/26 00:39:53;;;;;;;19.33;7.25;;;;;;;4.76;100.00;98851.22;5012958;28;20109;-79
2023/04/26 00:42:18;;;;;;;16.90;7.70;;;;;;;4.74;100.00;98872.00;5012423;28;20395;-79
2023/04/26 00:44:44;;;;;;;14.05;6.80;;;;;;;4.56;100.00;98861.41;4997288;28;20117;-80
2023/04/26 00:47:09;;;;;;;17.83;6.97;;;;;;;4.44;100.00;98865.38;5012657;28;20168;-79
2023/04/26 00:49:35;;;;;;;13.13;6.07;;;;;;;4.33;100.00;98885.25;4996634;28;20569;-79
2023/04/26 00:52:01;;;;;;;12.98;6.90;;;;;;;4.22;100.00;98876.66;4994518;28;20109;-79
2023/04/26 00:54:27;;;;;;;18.98;7.80;;;;;;;4.17;100.00;98882.53;4994492;28;20116;-79
2023/04/26 00:56:53;;;;;;;16.75;7.72;;;;;;;4.03;100.00;98877.75;4997618;28;20025;-79
2023/04/26 00:59:19;;;;;;;17.38;6.72;;;;;;;3.99;100.00;98877.25;4995716;28;20025;-78
2023/04/26 01:01:46;;;;;;;15.07;7.63;;;;;;;4.20;100.00;98905.47;4994967;28;20032;-79
2023/04/26 01:04:13;;;;;;;18.38;7.78;;;;;;;4.07;100.00;98895.19;5012355;28;20048;-78
2023/04/26 01:06:40;;;;;;;14.13;7.55;;;;;;;4.16;100.00;98911.13;4987201;28;20045;-78
2023/04/26 01:09:07;;;;;;;17.35;7.38;;;;;;;3.92;100.00;98871.69;4991978;28;20400;-79
2023/04/26 01:11:34;;;;;;;16.63;7.60;;;;;;;4.15;100.00;98909.44;4998000;28;20033;-79
2023/04/26 01:14:01;;;;;;;19.90;7.20;;;;;;;4.08;100.00;98896.84;5002306;28;20022;-79
2023/04/26 01:16:27;;;;;;;13.38;6.95;;;;;;;4.04;100.00;98893.66;4987341;28;20029;-79
2023/04/26 01:18:52;;;;;;;12.13;7.13;;;;;;;3.85;100.00;98861.75;5012962;28;20025;-81
2023/04/26 01:21:22;;;;;;;14.63;7.00;;;;;;;3.88;100.00;98886.38;4997043;28;20439;-81
2023/04/26 01:23:47;;;;;;;;;;;;;;;3.92;100.00;98905.63;4995918;28;20026;-79
2023/04/26 01:26:13;;;;;;;11.23;6.95;;;;;;;3.56;100.00;98857.56;5014392;28;19963;-79
2023/04/26 01:28:40;;;;;;;15.52;6.88;;;;;;;3.67;100.00;98894.78;4994875;28;20030;-79
2023/04/26 01:31:05;;;;;;;16.83;7.68;;;;;;;3.58;100.00;98890.38;4987940;28;20032;-80
2023/04/26 01:33:30;;;;;;;15.60;7.50;;;;;;;3.42;100.00;98890.25;5007828;28;20022;-79
2023/04/26 01:35:56;;;;;;;20.58;8.70;;;;;;;3.29;100.00;98867.41;4993948;28;20036;-79
2023/04/26 01:38:21;;;;;;;15.55;7.03;;;;;;;3.32;100.00;98878.81;4994871;28;20057;-79
2023/04/26 01:40:46;;;;;;;15.57;7.25;;;;;;;3.39;100.00;98895.91;4997012;28;20068;-79
2023/04/26 01:43:12;;;;;;;17.88;7.43;;;;;;;3.23;100.00;98889.44;4993159;28;20034;-79
2023/04/26 01:45:37;;;;;;;15.77;6.93;;;;;;;3.25;100.00;98900.00;4995172;28;20508;-80
2023/04/26 01:48:03;;;;;;;18.42;7.82;;;;;;;3.14;100.00;98894.88;4993547;28;20418;-79
2023/04/26 01:50:28;;;;;;;15.80;7.57;;;;;;;3.03;100.00;98886.09;4993603;28;20080;-79
2023/04/26 01:52:53;;;;;;;19.13;7.50;;;;;;;2.93;100.00;98879.13;4996894;28;20133;-79
2023/04/26 01:55:18;;;;;;;17.80;8.02;;;;;;;2.91;100.00;98891.81;4996771;28;20022;-79
2023/04/26 01:57:44;;;;;;;13.10;7.40;;;;;;;2.69;100.00;98875.22;4995792;28;20502;-84
2023/04/26 02:00:10;;;;;;;22.42;8.00;;;;;;;2.80;100.00;98896.41;4994213;28;20036;-79
2023/04/26 02:02:35;;;;;;;15.35;8.23;;;;;;;2.79;100.00;98894.72;4997025;28;20029;-79
2023/04/26 02:05:00;;;;;;;17.83;7.75;;;;;;;2.83;100.00;98905.97;4997950;28;20037;-79
2023/04/26 02:07:26;;;;;;;18.52;7.82;;;;;;;2.88;100.00;98913.50;4996748;28;20022;-79
2023/04/26 02:09:51;;;;;;;17.63;8.38;;;;;;;2.79;100.00;98894.72;4991421;28;20021;-79
2023/04/26 02:12:16;;;;;;;16.15;7.90;;;;;;;2.87;100.00;98903.81;4995376;28;20026;-79
2023/04/26 02:14:41;;;;;;;15.88;8.27;;;;;;;2.68;100.00;98851.38;5008852;28;20511;-78
2023/04/26 02:17:07;;;;;;;14.93;7.40;;;;;;;3.00;100.00;98894.41;5008975;28;20020;-78
2023/04/26 02:19:33;;;;;;;22.42;7.80;;;;;;;2.95;100.00;98877.16;4995178;28;20092;-79
2023/04/26 02:21:58;;;;;;;22.73;8.70;;;;;;;3.10;100.00;98891.66;4997455;28;20368;-80
2023/04/26 02:24:24;;;;;;;19.23;7.88;;;;;;;3.32;100.00;98913.56;4996113;28;20460;-78
2023/04/26 02:26:50;;;;;;;25.40;7.88;;;;;;;3.36;100.00;98915.78;5014003;28;20037;-78
2023/04/26 02:29:15;;;;;;;15.35;7.43;;;;;;;3.36;100.00;98909.59;4995007;28;20392;-80
2023/04/26 02:31:41;;;;;;;24.23;7.18;;;;;;;3.27;100.00;98888.16;5014014;28;20092;-82
2023/04/26 02:34:06;;;;;;;20.63;7.63;;;;;;;3.24;100.00;98880.41;4999559;28;20029;-80
2023/04/26 02:36:32;;;;;;;14.32;7.10;;;;;;;3.14;100.00;98855.59;4996281;28;20018;-81
2023/04/26 02:38:58;;;;;;;14.45;6.47;;;;;;;3.30;100.00;98886.97;4994500;28;20048;-81
2023/04/26 02:41:23;;;;;;;13.98;6.80;;;;;;;3.26;100.00;98865.06;5005672;28;20033;-82
2023/04/26 02:43:49;;;;;;;19.80;7.00;;;;;;;3.41;100.00;98886.75;5014191;28;20499;-80
2023/04/26 02:46:14;;;;;;;15.27;6.65;;;;;;;3.60;100.00;98893.72;5001260;28;20026;-81
2023/04/26 02:48:39;;;;;;;18.63;6.43;;;;;;;3.37;100.00;98885.38;5000406;28;20042;-81
2023/04/26 02:51:05;;;;;;;16.60;7.03;;;;;;;3.27;100.00;98892.63;5001788;28;20029;-81
2023/04/26 02:53:30;;;;;;;17.75;6.68;;;;;;;3.12;100.00;98873.66;5021084;28;20101;-81
2023/04/26 02:55:55;;;;;;;12.85;6.30;;;;;;;3.01;100.00;98884.56;5005594;28;20026;-81
2023/04/26 02:58:20;;;;;;;14.90;6.53;;;;;;;2.94;100.00;98884.34;5000049;28;20120;-80
2023/04/26 03:00:47;;;;;;;16.10;6.40;;;;;;;3.00;100.00;98886.41;5004352;28;20049;-82
2023/04/26 03:03:13;;;;;;;13.77;7.05;;;;;;;2.93;100.00;98906.69;4982319;28;20388;-80
2023/04/26 03:05:40;;;;;;;10.85;5.70;;;;;;;2.92;100.00;98904.19;4996626;28;20029;-83
2023/04/26 03:08:06;;;;;;;15.32;6.82;;;;;;;2.81;100.00;98895.41;4994132;28;20022;-84
2023/04/26 03:10:31;;;;;;;13.55;6.85;;;;;;;2.70;100.00;98887.63;4996127;28;20029;-83
2023/04/26 03:12:57;;;;;;;14.38;6.90;;;;;;;2.67;100.00;98892.41;4998074;28;20669;-82
2023/04/26 03:15:22;;;;;;;14.63;5.97;;;;;;;2.64;100.00;98901.56;5012804;28;20029;-80
2023/04/26 03:17:47;;;;;;;15.98;7.10;;;;;;;2.54;100.00;98885.63;4999915;28;20029;-80
2023/04/26 03:20:14;;;;;;;20.80;7.80;;;;;;;2.47;100.00;98905.06;5011364;28;20191;-80
2023/04/26 03:22:39;;;;;;;17.20;7.47;;;;;;;2.38;100.00;98888.94;5012386;28;20029;-80
2023/04/26 03:25:06;;;;;;;19.92;7.10;;;;;;;2.48;100.00;98922.75;5000068;28;20026;-81
2023/04/26 03:27:51;;;;;;;14.07;6.80;;;;;;;2.35;100.00;98920.41;4996134;28;20031;-85
2023/04/26 03:30:17;;;;;;;20.48;6.97;;;;;;;2.25;100.00;98900.94;4998635;28;20030;-79
2023/04/26 03:32:42;;;;;;;19.95;7.05;;;;;;;2.36;100.00;98895.41;4994826;28;20504;-79
2023/04/26 03:35:09;;;;;;;14.80;7.00;;;;;;;2.29;100.00;98908.50;4999992;28;20033;-79
2023/04/26 03:37:43;;;;;;;29.95;8.10;;;;;;;2.18;100.00;98906.03;4993345;28;20015;-81
2023/04/26 03:40:09;;;;;;;13.20;6.43;;;;;;;2.09;100.00;98902.41;5001198;28;20029;-81
2023/04/26 03:42:35;;;;;;;17.17;7.20;;;;;;;1.98;100.00;98887.41;4996186;28;20094;-80
2023/04/26 03:45:02;;;;;;;15.48;6.75;;;;;;;2.19;100.00;98911.22;4994991;28;20049;-81
2023/04/26 03:47:28;;;;;;;16.73;7.68;;;;;;;1.96;100.00;98892.09;4999505;28;20022;-76
2023/04/26 03:49:53;;;;;;;21.00;7.13;;;;;;;2.16;100.00;98902.66;5010572;28;20028;-79
2023/04/26 03:52:19;;;;;;;18.98;7.43;;;;;;;2.05;100.00;98894.88;5013376;28;20025;-75
2023/04/26 03:54:44;;;;;;;17.50;8.20;;;;;;;2.15;100.00;98912.50;5013263;28;20025;-77
2023/04/26 03:57:10;;;;;;;19.33;7.70;;;;;;;2.03;100.00;98897.66;5014204;28;20045;-76
2023/04/26 03:59:35;;;;;;;21.83;8.55;;;;;;;1.96;100.00;98894.75;4992981;28;20483;-79
2023/04/26 04:02:00;;;;;;;17.88;7.18;;;;;;;1.94;100.00;98909.22;5013408;28;20034;-83
2023/04/26 04:04:26;;;;;;;17.98;7.65;;;;;;;1.82;100.00;98883.72;5018404;28;20022;-82
2023/04/26 04:06:51;;;;;;;16.98;8.60;;;;;;;1.74;100.00;98887.09;5015237;28;20018;-89
2023/04/26 04:09:16;;;;;;;17.55;7.57;;;;;;;1.61;100.00;98863.41;5011893;28;20530;-84
2023/04/26 04:11:42;;;;;;;18.60;7.90;;;;;;;1.84;100.00;98897.75;5008889;28;20022;-89
2023/04/26 04:14:07;;;;;;;22.65;8.18;;;;;;;1.64;100.00;98873.78;5004260;28;20026;-85
2023/04/26 04:16:32;;;;;;;25.10;7.78;;;;;;;1.46;100.00;98849.69;5014947;28;20029;-79
2023/04/26 04:18:58;;;;;;;19.00;8.63;;;;;;;1.60;100.00;98864.41;5021209;28;20041;-81
2023/04/26 04:21:23;;;;;;;21.02;8.10;;;;;;;1.64;100.00;98860.44;5015210;28;20029;-87
2023/04/26 04:23:49;;;;;;;17.85;8.07;;;;;;;1.54;100.00;98856.97;5008022;28;20029;-85
2023/04/26 04:26:17;;;;;;;16.80;8.50;;;;;;;1.72;100.00;98867.72;5012735;28;20018;-89
2023/04/26 04:28:44;;;;;;;20.23;7.35;;;;;;;1.69;100.00;98862.69;5020256;28;20022;-81
2023/04/26 04:31:10;;;;;;;17.85;7.90;;;;;;;1.95;100.00;98897.56;5012140;28;20053;-75
2023/04/26 04:33:35;;;;;;;15.20;8.27;;;;;;;1.82;100.00;98868.53;5014804;28;20061;-86
2023/04/26 04:36:00;;;;;;;23.95;8.65;;;;;;;1.74;100.00;98853.25;5016554;28;20017;-83
2023/04/26 04:38:26;;;;;;;13.95;6.95;;;;;;;2.08;100.00;98882.06;5016494;28;20037;-82
2023/04/26 04:40:51;;;;;;;15.68;7.25;;;;;;;2.35;100.00;98918.59;5019375;28;20057;-79
2023/04/26 04:43:16;;;;;;;23.25;7.63;;;;;;;2.24;100.00;98889.41;5030798;28;20018;-88
2023/04/26 04:45:42;;;;;;;13.60;6.65;;;;;;;2.12;100.00;98855.91;5007107;28;20064;-87
2023/04/26 04:48:08;;;;;;;16.52;7.40;;;;;;;2.31;100.00;98861.16;5003825;28;20030;-85
2023/04/26 04:50:34;;;;;;;15.95;7.13;;;;;;;2.49;100.00;98871.00;5018485;28;20022;-83
2023/04/26 04:53:00;;;;;;;15.95;6.78;;;;;;;2.93;100.00;98920.06;4996561;28;20029;-84
2023/04/26 04:55:27;;;;;;;14.55;6.88;;;;;;;3.05;100.00;98896.63;4987964;28;20026;-82
2023/04/26 04:58:13;;;;;;;19.17;6.97;;;;;;;3.07;100.00;98891.97;4942187;28;20065;-79
2023/04/26 05:00:39;;;;;;;13.32;5.97;;;;;;;3.19;100.00;98900.59;4988712;28;20064;-86
2023/04/26 05:03:41;;;;;;;16.15;6.38;;;;;;;3.36;100.00;98917.63;5002280;28;20021;-84
2023/04/26 05:06:07;;;;;;;15.88;6.82;;;;;;;3.38;100.00;98899.56;5008477;28;20033;-85
2023/04/26 05:08:32;;;;;;;16.75;6.70;;;;;;;3.16;100.00;98847.44;4986301;28;20026;-84
2023/04/26 05:10:58;;;;;;;16.48;6.43;;;;;;;3.04;100.00;98828.16;5022406;28;20510;-76
2023/04/26 05:13:23;;;;;;;17.42;6.90;;;;;;;3.27;100.00;98856.06;4991631;28;20030;-80
2023/04/26 05:15:48;;;;;;;13.50;6.85;;;;;;;3.58;100.00;98874.31;5015357;28;20042;-81
2023/04/26 05:18:14;;;;;;;14.05;6.25;;;;;;;3.67;100.00;98865.38;4989075;28;20026;-80
2023/04/26 05:20:40;;;;;;;12.80;5.97;;;;;;;4.02;100.00;98892.97;5011520;28;20034;-77
2023/04/26 05:23:05;;;;;;;13.50;6.45;;;;;;;4.18;100.00;98882.34;5016383;28;20032;-80
2023/04/26 05:25:31;;;;;;;13.75;6.47;;;;;;;4.64;100.00;98921.34;5000828;28;20017;-85
2023/04/26 05:27:56;;;;;;;15.38;5.95;;;;;;;4.70;100.00;98888.56;4979684;28;20117;-88
2023/04/26 05:30:29;;;;;;;12.70;6.30;;;;;;;5.20;100.00;98931.38;5020045;28;20038;-85
2023/04/26 05:32:55;;;;;;;9.10;5.68;;;;;;;5.38;100.00;98923.19;5013694;28;20030;-82
2023/04/26 05:35:21;;;;;;;11.60;6.03;;;;;;;5.33;100.00;98885.28;5012536;28;20030;-80
2023/04/26 05:37:46;;;;;;;10.20;6.00;;;;;;;5.65;100.00;98915.78;5000334;28;20130;-75
2023/04/26 05:40:12;;;;;;;14.50;6.95;;;;;;;5.68;100.00;98924.34;4996762;28;20156;-76
2023/04/26 05:42:37;;;;;;;12.07;5.78;;;;;;;5.90;100.00;98924.66;4997715;28;20081;-77
2023/04/26 05:45:04;;;;;;;12.73;5.80;;;;;;;5.81;100.00;98921.13;5009964;28;20044;-76
2023/04/26 05:47:29;;;;;;;13.20;7.15;;;;;;;6.05;100.00;98922.13;4993327;28;20027;-75
2023/04/26 05:49:54;;;;;;;15.88;6.30;;;;;;;6.19;100.00;98916.06;4991350;28;20037;-77
2023/04/26 05:52:20;;;;;;;14.98;5.90;;;;;;;6.34;100.00;98887.47;5013282;28;20020;-77
2023/04/26 05:54:45;;;;;;;11.52;5.93;;;;;;;6.86;100.00;98933.59;5002807;28;20076;-81
2023/04/26 05:57:10;;;;;;;14.80;6.07;;;;;;;7.17;100.00;98920.94;5001053;28;20387;-76
2023/04/26 05:59:36;;;;;;;10.88;5.50;;;;;;;7.59;100.00;98873.84;5020791;28;20498;-75
2023/04/26 06:02:01;;;;;;;11.13;5.75;;;;;;;9.78;100.00;98894.56;5016886;28;20399;-75
2023/04/26 06:04:26;;;;;;;22.55;5.65;;;;;;;12.80;100.00;98860.47;4989309;28;20145;-75
2023/04/26 06:06:52;;;;;;;10.18;4.90;;;;;;;15.29;100.00;98896.66;5013324;28;20113;-75
2023/04/26 06:09:18;;;;;;;10.52;5.10;;;;;;;16.79;73.24;98910.09;5006817;28;20476;-75
2023/04/26 06:11:43;;;;;;;10.38;4.78;;;;;;;17.01;69.75;98911.13;5014061;28;20480;-73
2023/04/26 06:14:08;;;;;;;11.88;5.00;;;;;;;17.96;64.98;98909.59;4992913;28;20124;-73
2023/04/26 06:16:33;;;;;;;11.73;5.65;;;;;;;18.14;61.41;98902.19;5007113;28;20372;-73
2023/04/26 06:18:59;;;;;;;14.40;5.75;;;;;;;18.66;57.42;98899.13;5014081;28;20029;-73
2023/04/26 06:21:25;;;;;;;14.45;5.20;;;;;;;18.57;54.43;98906.09;4998852;28;20033;-78
2023/04/26 06:23:50;;;;;;;12.48;5.20;;;;;;;19.82;52.24;98881.50;4997702;28;20027;-80
2023/04/26 06:26:15;;;;;;;9.70;5.40;;;;;;;19.95;50.72;98906.88;4997152;28;20042;-78
2023/04/26 06:28:41;;;;;;;12.88;5.85;;;;;;;20.25;50.24;98898.88;5008925;28;20026;-70
2023/04/26 06:31:06;;;;;;;11.02;5.95;;;;;;;18.92;51.85;98911.28;5013112;28;20048;-70
2023/04/26 06:33:31;;;;;;;15.00;6.38;;;;;;;18.32;53.04;98929.31;5009633;28;20116;-73
2023/04/26 06:35:56;;;;;;;13.27;6.35;;;;;;;19.65;51.36;98913.72;5011595;28;20492;-77
2023/04/26 06:38:22;;;;;;;11.82;6.57;;;;;;;20.04;50.50;98927.25;5001764;28;20029;-76
2023/04/26 06:40:47;;;;;;;11.02;6.45;;;;;;;22.12;46.37;98903.63;4999286;28;20030;-76
2023/04/26 06:43:12;;;;;;;10.77;6.30;;;;;;;21.21;44.97;98897.69;5015197;28;20170;-76
2023/04/26 06:45:40;;;;;;;8.38;5.65;;;;;;;21.57;44.14;98908.00;4998026;28;20040;-79
2023/04/26 06:48:07;;;;;;;13.23;5.43;;;;;;;20.66;45.24;98918.38;5009607;28;20410;-81
2023/04/26 06:50:38;;;;;;;10.20;4.57;;;;;;;22.54;42.59;98847.34;5001610;28;20057;-77
2023/04/26 06:53:03;;;;;;;9.57;4.60;;;;;;;22.96;40.37;98857.09;4999989;28;20079;-79
2023/04/26 06:55:29;;;;;;;13.77;5.50;;;;;;;22.95;41.70;98888.53;5015678;28;20042;-80
2023/04/26 06:57:55;;;;;;;10.30;5.93;;;;;;;23.03;41.41;98876.97;5002933;28;20512;-78
2023/04/26 07:00:21;;;;;;;9.85;4.47;;;;;;;22.09;41.50;98857.34;4996455;28;20093;-79
2023/04/26 07:02:47;;;;;;;7.43;4.03;;;;;;;22.79;39.51;98901.56;5015193;28;20061;-80
2023/04/26 07:05:13;;;;;;;8.43;3.53;;;;;;;23.01;37.74;98926.09;4997052;28;20053;-80
2023/04/26 07:07:39;;;;;;;8.27;4.40;;;;;;;24.86;37.38;98901.47;4996425;28;20097;-79
2023/04/26 07:10:05;;;;;;;8.05;3.90;;;;;;;24.89;36.07;98877.94;5000298;28;20064;-84
2023/04/26 07:12:30;;;;;;;11.43;4.00;;;;;;;25.94;35.38;98902.81;4994004;28;20877;-82
2023/04/26 07:14:56;;;;;;;7.97;3.53;;;;;;;26.78;33.87;98894.38;4997805;28;20021;-80
2023/04/26 07:17:21;;;;;;;6.93;3.15;;;;;;;28.42;31.72;98890.59;4996643;28;20102;-70
2023/04/26 07:19:46;;;;;;;9.68;3.63;;;;;;;26.48;32.91;98895.72;5011870;28;20108;-71
2023/04/26 07:22:12;;;;;;;7.45;3.60;;;;;;;25.35;35.57;98877.34;4996173;28;20079;-75
2023/04/26 07:24:37;;;;;;;6.03;3.50;;;;;;;24.57;35.22;98862.78;4996029;28;20049;-75
2023/04/26 07:27:03;;;;;;;7.90;3.65;;;;;;;25.63;35.61;98869.19;4999727;28;20033;-78
2023/04/26 07:29:28;;;;;;;6.85;3.42;;;;;;;27.92;32.80;98882.44;4980136;28;20496;-71
2023/04/26 07:31:53;;;;;;;6.07;3.60;;;;;;;25.67;32.95;98871.03;5011747;28;20029;-70
2023/04/26 07:34:19;;;;;;;5.65;2.88;;;;;;;27.54;33.26;98868.88;5011722;28;20030;-71
2023/04/26 07:36:44;;;;;;;5.28;3.10;;;;;;;28.77;32.04;98863.78;5010136;28;20028;-78
2023/04/26 07:39:10;;;;;;;9.48;3.03;;;;;;;29.15;30.05;98859.63;5014352;28;20018;-78
2023/04/26 07:41:35;;;;;;;5.43;3.05;;;;;;;27.17;31.54;98856.94;5024007;28;20051;-80
2023/04/26 07:44:01;;;;;;;8.68;3.20;;;;;;;27.49;31.70;98871.78;5007838;28;20102;-77
2023/04/26 07:46:26;;;;;;;4.63;2.90;;;;;;;27.99;30.57;98849.44;5013402;28;20049;-82
2023/04/26 07:48:53;;;;;;;8.55;3.17;;;;;;;25.72;33.46;98883.97;4996785;28;20023;-76
2023/04/26 07:51:18;;;;;;;11.10;3.60;;;;;;;25.62;33.10;98879.41;4996765;28;20391;-77
2023/04/26 07:53:43;;;;;;;7.00;3.40;;;;;;;24.30;35.85;98854.22;5001492;28;20022;-77
2023/04/26 07:56:09;;;;;;;7.05;3.38;;;;;;;23.39;35.40;98879.50;5002048;28;20036;-79
2023/04/26 07:58:35;;;;;;;10.68;3.58;;;;;;;23.38;35.81;98886.16;5018037;28;20380;-72
2023/04/26 08:01:01;;;;;;;10.88;3.58;;;;;;;23.63;35.44;98863.91;5014938;28;20053;-72
2023/04/26 08:03:27;;;;;;;6.88;2.95;;;;;;;24.47;33.74;98883.09;5008124;28;20049;-72
2023/04/26 08:05:52;;;;;;;6.90;2.58;;;;;;;27.88;32.29;98861.97;5008576;28;20088;-72
2023/04/26 08:08:18;;;;;;;6.30;3.00;;;;;;;28.61;30.09;98868.97;4993504;28;20068;-74
2023/04/26 08:10:43;;;;;;;10.75;3.67;;;;;;;28.05;30.86;98859.28;4994086;28;20018;-72
2023/04/26 08:13:08;;;;;;;7.95;3.05;;;;;;;27.46;32.23;98880.75;5002442;28;20034;-73
2023/04/26 08:15:34;;;;;;;4.97;3.05;;;;;;;29.19;30.75;98877.34;5009504;28;20026;-69
2023/04/26 08:17:59;;;;;;;7.20;2.95;;;;;;;29.28;28.32;98879.00;5005805;28;20625;-74
2023/04/26 08:20:24;;;;;;;6.47;3.10;;;;;;;30.05;28.96;98872.94;4994530;28;20032;-74
2023/04/26 08:22:57;;;;;;;6.53;2.67;;;;;;;32.09;26.68;98872.84;5012327;28;20750;-74
2023/04/26 08:25:23;;;;;;;6.15;2.45;;;;;;;32.64;25.10;98880.00;4995161;28;20025;-75
2023/04/26 08:27:48;;;;;;;3.67;1.70;;;;;;;31.83;24.33;98884.25;5005086;28;20038;-73
2023/04/26 08:30:14;;;;;;;7.55;2.05;;;;;;;27.08;27.12;98875.41;5011022;28;20029;-78
2023/04/26 08:32:39;;;;;;;4.65;1.80;;;;;;;24.70;30.62;98886.97;4989005;28;20026;-73
2023/04/26 08:35:05;;;;;;;4.15;1.80;;;;;;;23.96;31.45;98878.03;5011722;28;20379;-72
2023/04/26 08:37:30;;;;;;;8.00;2.72;;;;;;;21.39;33.05;98876.31;5010783;28;20030;-73
2023/04/26 08:39:55;;;;;;;7.22;2.35;;;;;;;18.68;36.92;98907.06;5008323;28;20082;-72
2023/04/26 08:42:25;;;;;;;4.90;2.00;;;;;;;17.14;37.34;98912.75;5009789;28;20081;-77
2023/04/26 08:44:52;;;;;;;5.28;2.25;;;;;;;18.16;37.86;98894.56;4987127;28;20500;-75
2023/04/26 08:47:21;;;;;;;6.43;2.40;;;;;;;17.61;36.78;98901.56;5011625;28;20115;-77
2023/04/26 08:49:59;;;;;;;10.07;2.42;;;;;;;17.69;37.94;98892.97;5016281;28;20021;-73
2023/04/26 08:52:29;;;;;;;6.28;2.35;;;;;;;21.51;35.34;98871.38;4997142;28;20026;-74
2023/04/26 08:54:59;;;;;;;6.93;2.13;;;;;;;21.25;35.75;98873.22;4993859;28;20041;-83
2023/04/26 08:57:25;;;;;;;4.80;2.40;;;;;;;20.38;36.96;98905.78;4997743;28;20026;-73
2023/04/26 08:59:52;;;;;;;8.73;2.90;;;;;;;19.25;39.55;98895.72;5003973;28;20120;-81
2023/04/26 09:02:22;;;;;;;7.68;3.03;;;;;;;18.00;40.52;98898.97;4998530;28;20030;-78
2023/04/26 09:04:48;;;;;;;7.13;2.90;;;;;;;18.52;42.25;98906.88;4994601;28;20489;-79
2023/04/26 09:07:20;;;;;;;7.07;2.60;;;;;;;18.61;41.24;98885.34;5000013;28;20542;-80
2023/04/26 09:09:49;;;;;;;8.30;2.95;;;;;;;19.34;39.09;98885.97;4991878;28;20029;-76
2023/04/26 09:12:18;;;;;;;6.32;3.15;;;;;;;22.22;36.49;98848.53;5011020;28;20400;-79
2023/04/26 09:14:43;;;;;;;8.38;3.17;;;;;;;25.59;31.66;98869.75;4997908;28;20026;-76
2023/04/26 09:17:27;;;;;;;5.82;3.50;;;;;;;26.12;30.74;98876.13;4991669;28;20025;-80
2023/04/26 09:19:53;;;;;;;7.97;3.50;;;;;;;22.65;33.49;98892.25;4994310;28;20507;-73
2023/04/26 09:22:33;;;;;;;9.60;2.90;;;;;;;20.28;36.59;98889.25;5007467;28;20044;-75
2023/04/26 09:24:59;;;;;;;8.80;4.10;;;;;;;18.28;38.85;98891.72;4997528;28;20026;-72
2023/04/26 09:27:40;;;;;;;10.13;3.58;;;;;;;16.98;41.55;98875.25;4993963;28;20026;-71
2023/04/26 09:30:09;;;;;;;10.57;3.47;;;;;;;16.10;43.31;98885.34;5002423;28;20034;-71
2023/04/26 09:32:51;;;;;;;7.13;3.40;;;;;;;16.02;44.08;98888.41;5007058;28;20168;-71
2023/04/26 09:35:30;;;;;;;7.50;2.95;;;;;;;15.10;45.17;98893.16;5014462;28;20419;-71
2023/04/26 09:37:58;;;;;;;6.18;2.65;;;;;;;15.67;45.57;98891.91;5009194;28;20476;-71
2023/04/26 09:40:24;;;;;;;8.77;2.72;;;;;;;17.95;43.77;98874.25;5005043;28;20036;-71
2023/04/26 09:42:58;;;;;;;9.25;2.50;;;;;;;19.80;40.49;98875.44;5010901;28;20029;-69
2023/04/26 09:45:24;;;;;;;5.15;2.70;;;;;;;19.35;39.21;98865.66;5006598;28;20078;-69
2023/04/26 09:47:50;;;;;;;9.07;2.70;;;;;;;18.74;41.10;98884.97;5004755;28;20026;-71
2023/04/26 09:50:28;;;;;;;5.15;2.83;;;;;;;16.21;43.15;98892.69;5004516;28;20096;-69
2023/04/26 09:52:54;;;;;;;5.18;2.60;;;;;;;15.81;43.82;98870.72;5014038;28;20021;-70
2023/04/26 09:55:27;;;;;;;6.90;2.50;;;;;;;16.13;45.58;98873.94;4998191;28;20088;-70
2023/04/26 09:57:54;;;;;;;8.88;2.60;;;;;;;15.69;44.43;98881.59;5003599;28;20037;-70
2023/04/26 10:00:20;;;;;;;7.15;2.67;;;;;;;16.59;46.04;98872.22;4986567;28;20122;-69
2023/04/26 10:02:45;;;;;;;6.10;3.00;;;;;;;16.69;44.33;98863.41;5009145;28;20030;-70
2023/04/26 10:05:11;;;;;;;9.18;2.80;;;;;;;17.08;44.06;98869.94;5009072;28;20402;-69
2023/04/26 10:07:37;;;;;;;5.53;2.40;;;;;;;17.31;43.73;98844.41;5011874;28;20487;-70
2023/04/26 10:10:04;;;;;;;7.47;2.40;;;;;;;16.84;42.50;98847.34;5000404;28;20026;-71
2023/04/26 10:12:29;;;;;;;6.05;2.13;;;;;;;17.64;42.96;98873.72;5006431;28;20034;-69
2023/04/26 10:14:56;;;;;;;5.28;2.20;;;;;;;17.49;43.52;98857.03;4990660;28;20041;-73
2023/04/26 10:17:21;;;;;;;6.97;2.10;;;;;;;17.95;40.70;98874.25;5002742;28;20556;-71
2023/04/26 10:19:51;;;;;;;7.68;2.47;;;;;;;16.77;41.87;98866.63;5008180;28;20117;-72
2023/04/26 10:22:22;;;;;;;4.97;2.20;;;;;;;17.55;41.10;98849.75;4996249;28;20021;-72
2023/04/26 10:24:48;;;;;;;5.85;1.95;;;;;;;19.63;40.33;98859.06;4992448;28;20018;-72
2023/04/26 10:27:14;;;;;;;6.53;1.92;;;;;;;20.84;37.71;98858.53;4992955;28;20292;-74
2023/04/26 10:29:55;;;;;;;4.22;1.73;;;;;;;22.65;34.63;98862.72;5004261;28;20573;-73
2023/04/26 10:32:21;;;;;;;5.68;1.98;;;;;;;24.03;32.06;98866.66;5002824;28;20033;-72
2023/04/26 10:35:15;;;;;;;6.05;2.15;;;;;;;26.33;30.41;98852.47;4985519;28;20019;-72
2023/04/26 10:37:58;;;;;;;3.60;2.10;;;;;;;23.85;32.01;98851.59;4985423;28;20149;-72
2023/04/26 10:40:25;;;;;;;5.65;2.10;;;;;;;22.36;32.47;98857.03;4992996;28;20076;-71
2023/04/26 10:43:10;;;;;;;5.93;2.50;;;;;;;22.85;35.04;98837.00;5007003;28;20096;-72
2023/04/26 10:45:37;;;;;;;5.70;2.63;;;;;;;23.58;32.50;98855.66;5006784;28;20037;-71
2023/04/26 10:48:16;;;;;;;9.52;2.60;;;;;;;23.71;33.71;98832.06;5009999;28;20078;-72
2023/04/26 10:51:00;;;;;;;5.47;2.20;;;;;;;21.31;35.17;98841.03;4992337;28;20101;-71
2023/04/26 10:53:31;;;;;;;8.50;2.53;;;;;;;20.50;36.80;98853.38;4984981;28;20026;-72
2023/04/26 10:55:57;;;;;;;6.10;2.55;;;;;;;19.53;40.14;98848.00;5011195;28;20022;-73
2023/04/26 10:58:28;;;;;;;4.75;2.08;;;;;;;20.51;37.41;98833.03;5010177;28;20037;-73
2023/04/26 11:01:03;;;;;;;9.13;2.25;;;;;;;20.99;36.94;98842.91;4991501;28;20025;-72
2023/04/26 11:03:30;;;;;;;4.32;2.10;;;;;;;25.23;32.61;98835.41;5006625;28;20034;-72
2023/04/26 11:05:55;;;;;;;4.03;2.08;;;;;;;24.48;32.11;98823.06;5002864;28;20021;-72
2023/04/26 11:08:28;;;;;;;6.68;2.35;;;;;;;22.51;32.60;98829.44;5004169;28;20033;-73
2023/04/26 11:11:05;;;;;;;6.50;2.28;;;;;;;24.76;32.57;98826.91;5003770;28;20104;-75
2023/04/26 11:13:39;;;;;;;7.10;2.47;;;;;;;23.70;31.40;98833.16;5010171;28;20117;-71
2023/04/26 11:16:07;;;;;;;6.95;2.28;;;;;;;23.46;31.84;98830.31;5010578;28;20030;-71
2023/04/26 11:18:34;;;;;;;6.88;3.10;;;;;;;20.45;34.97;98825.88;5010048;28;20033;-72
2023/04/26 11:21:00;;;;;;;7.47;2.60;;;;;;;17.81;37.96;98799.03;5010176;28;20047;-75
2023/04/26 11:23:27;;;;;;;6.15;3.22;;;;;;;17.70;37.70;98815.25;4993085;28;20072;-76
2023/04/26 11:25:56;;;;;;;6.95;2.55;;;;;;;17.27;38.34;98791.31;4991991;28;20094;-75
2023/04/26 11:28:22;;;;;;;6.53;2.20;;;;;;;17.86;38.55;98804.59;4987850;28;20056;-75